createdAt,value
2023-01-09T00:00:54.862Z,33.42
2023-01-09T00:06:18.618Z,32.40
2023-01-09T00:11:40.906Z,35.68
2023-01-09T00:17:03.231Z,35.92
2023-01-09T00:22:25.709Z,34.90
2023-01-09T00:27:51.950Z,32.10
2023-01-09T00:33:14.808Z,32.03
2023-01-09T00:38:38.577Z,32.00
2023-01-09T00:44:05.339Z,32.40
2023-01-09T00:49:29.350Z,30.80
2023-01-09T00:54:53.943Z,28.30
2023-01-09T01:00:18.793Z,30.10
2023-01-09T01:05:59.059Z,29.73
2023-01-09T01:16:41.723Z,25.30
2023-01-09T01:22:04.138Z,30.10
2023-01-09T01:27:26.378Z,29.80
2023-01-09T01:32:48.930Z,29.67
2023-01-09T01:38:11.507Z,30.87
2023-01-09T01:43:33.765Z,29.65
2023-01-09T01:48:58.373Z,29.40
2023-01-09T01:54:25.520Z,31.70
2023-01-09T01:59:52.537Z,31.15
2023-01-09T02:05:16.595Z,31.10
2023-01-09T02:10:39.871Z,28.93
2023-01-09T02:16:19.155Z,32.13
2023-01-09T02:22:12.752Z,30.90
2023-01-09T02:27:57.777Z,29.97
2023-01-09T02:33:48.245Z,31.10
2023-01-09T02:39:31.567Z,29.37
2023-01-09T02:44:54.053Z,30.73
2023-01-09T02:50:28.052Z,31.23
2023-01-09T02:56:17.772Z,30.13
2023-01-09T03:01:56.202Z,29.10
2023-01-09T03:07:35.664Z,29.47
2023-01-09T03:13:00.805Z,28.63
2023-01-09T03:18:28.216Z,29.43
2023-01-09T03:24:11.201Z,28.37
2023-01-09T03:29:34.283Z,30.03
2023-01-09T03:34:56.560Z,28.53
2023-01-09T03:40:19.760Z,29.57
2023-01-09T03:45:42.132Z,29.00
2023-01-09T03:51:07.838Z,30.20
2023-01-09T03:56:30.503Z,28.47
2023-01-09T04:01:52.867Z,29.23
2023-01-09T04:07:15.321Z,27.70
2023-01-09T04:12:37.654Z,28.57
2023-01-09T04:17:59.826Z,30.03
2023-01-09T04:23:22.652Z,28.70
2023-01-09T04:28:44.985Z,29.80
2023-01-09T04:34:07.740Z,28.97
2023-01-09T04:39:29.979Z,29.03
2023-01-09T04:44:53.975Z,28.97
2023-01-09T04:50:17.726Z,29.23
2023-01-09T04:55:41.852Z,29.57
2023-01-09T05:01:04.367Z,28.50
2023-01-09T05:06:26.782Z,30.07
2023-01-09T05:11:49.013Z,30.80
2023-01-09T05:17:11.193Z,30.72
2023-01-09T05:22:33.984Z,29.85
2023-01-09T05:27:56.308Z,30.15
2023-01-09T05:33:18.530Z,31.23
2023-01-09T05:38:40.811Z,33.78
2023-01-09T05:44:03.130Z,32.67
2023-01-09T05:49:26.375Z,33.10
2023-01-09T05:54:48.755Z,34.50
2023-01-09T06:00:11.273Z,32.58
2023-01-09T06:05:34.275Z,35.20
2023-01-09T06:10:56.531Z,38.35
2023-01-09T06:16:19.384Z,36.67
2023-01-09T06:21:41.681Z,35.25
2023-01-09T06:27:03.969Z,34.10
2023-01-09T06:32:26.631Z,36.30
2023-01-09T06:37:49.970Z,35.43
2023-01-09T06:43:12.198Z,36.17
2023-01-09T06:48:34.575Z,37.80
2023-01-09T06:53:56.813Z,34.30
2023-01-09T06:59:19.083Z,34.55
2023-01-09T07:04:41.356Z,34.53
2023-01-09T07:10:04.062Z,34.95
2023-01-09T07:15:26.609Z,32.93
2023-01-09T07:20:51.007Z,33.55
2023-01-09T07:26:15.909Z,33.48
2023-01-09T07:31:38.781Z,33.00
2023-01-09T07:37:01.349Z,34.55
2023-01-09T07:42:24.605Z,31.27
2023-01-09T07:47:47.837Z,37.83
2023-01-09T07:53:10.297Z,36.70
2023-01-09T07:58:33.004Z,41.27
2023-01-09T08:03:55.247Z,40.60
2023-01-09T08:09:18.632Z,39.67
2023-01-09T08:14:41.271Z,40.90
2023-01-09T08:20:03.551Z,39.93
2023-01-09T08:25:26.894Z,39.25
2023-01-09T08:30:49.696Z,41.00
2023-01-09T08:36:13.210Z,41.45
2023-01-09T08:41:53.570Z,40.15
2023-01-09T08:52:31.968Z,41.92
2023-01-09T08:58:04.551Z,41.00
2023-01-09T09:03:28.113Z,41.53
2023-01-09T09:08:50.331Z,42.17
2023-01-09T09:14:31.215Z,41.42
2023-01-09T09:19:53.770Z,41.88
2023-01-09T09:25:16.907Z,42.13
2023-01-09T09:30:39.338Z,43.57
2023-01-09T09:36:02.372Z,44.00
2023-01-09T09:41:59.376Z,42.13
2023-01-09T09:47:56.925Z,41.10
2023-01-09T09:53:35.889Z,41.20
2023-01-09T09:59:27.105Z,41.93
2023-01-09T10:04:54.389Z,41.87
2023-01-09T10:10:21.887Z,42.23
2023-01-09T10:15:55.049Z,43.10
2023-01-09T10:21:22.240Z,41.17
2023-01-09T10:32:48.398Z,41.33
2023-01-09T10:38:13.513Z,39.05
2023-01-09T10:44:08.513Z,39.60
2023-01-09T10:49:32.907Z,39.23
2023-01-09T10:55:03.986Z,40.60
2023-01-09T11:00:30.027Z,39.60
2023-01-09T11:05:59.276Z,40.17
2023-01-09T11:11:44.652Z,40.97
2023-01-09T11:17:16.951Z,47.27
2023-01-09T11:22:49.272Z,41.23
2023-01-09T11:28:17.898Z,41.70
2023-01-09T11:33:44.064Z,41.33
2023-01-09T11:39:09.356Z,41.57
2023-01-09T11:44:33.800Z,42.33
2023-01-09T11:49:56.031Z,41.63
2023-01-09T11:55:27.249Z,41.70
2023-01-09T12:00:56.743Z,41.92
2023-01-09T12:06:41.873Z,42.10
2023-01-09T12:12:28.779Z,42.55
2023-01-09T12:18:27.704Z,42.90
2023-01-09T12:24:21.585Z,43.70
2023-01-09T12:30:08.799Z,42.58
2023-01-09T12:35:54.926Z,42.33
2023-01-09T12:41:46.164Z,43.23
2023-01-09T12:47:23.017Z,42.73
2023-01-09T12:52:53.601Z,44.80
2023-01-09T12:58:58.010Z,43.73
2023-01-09T13:04:35.281Z,92.10
2023-01-09T13:10:14.812Z,49.23
2023-01-09T13:15:50.909Z,46.17
2023-01-09T13:21:14.888Z,45.00
2023-01-09T13:26:45.195Z,42.97
2023-01-09T13:32:21.257Z,44.60
2023-01-09T13:37:53.689Z,44.20
2023-01-09T13:43:19.273Z,45.87
2023-01-09T13:48:48.526Z,43.83
2023-01-09T13:54:10.854Z,44.37
2023-01-09T13:59:45.283Z,42.48
2023-01-09T14:05:08.669Z,45.10
2023-01-09T14:11:00.350Z,45.17
2023-01-09T14:16:38.746Z,45.40
2023-01-09T14:22:04.375Z,43.92
2023-01-09T14:28:11.909Z,43.37
2023-01-09T14:33:40.382Z,44.48
2023-01-09T14:39:09.829Z,44.38
2023-01-09T14:45:07.775Z,69.70
2023-01-09T14:50:59.811Z,43.17
2023-01-09T14:56:29.696Z,44.25
2023-01-09T15:01:58.625Z,44.00
2023-01-09T15:07:28.506Z,43.93
2023-01-09T15:18:16.164Z,43.77
2023-01-09T15:23:40.632Z,63.13
2023-01-09T15:29:09.525Z,44.05
2023-01-09T15:34:38.907Z,42.97
2023-01-09T15:40:02.397Z,40.43
2023-01-09T15:45:45.381Z,41.42
2023-01-09T15:51:19.281Z,43.23
2023-01-09T15:56:44.801Z,42.50
2023-01-09T16:02:32.435Z,47.33
2023-01-09T16:07:58.451Z,41.80
2023-01-09T16:13:23.040Z,43.13
2023-01-09T16:18:58.178Z,41.60
2023-01-09T16:24:34.796Z,44.58
2023-01-09T16:30:00.168Z,45.85
2023-01-09T16:35:29.285Z,44.93
2023-01-09T16:41:28.147Z,46.23
2023-01-09T16:46:53.990Z,45.43
2023-01-09T16:52:20.017Z,45.40
2023-01-09T16:57:43.516Z,43.98
2023-01-09T17:03:05.717Z,42.77
2023-01-09T17:08:44.918Z,43.63
2023-01-09T17:14:07.557Z,43.03
2023-01-09T17:19:32.568Z,44.40
2023-01-09T17:25:12.516Z,42.83
2023-01-09T17:30:34.907Z,43.70
2023-01-09T17:35:57.433Z,41.67
2023-01-09T17:41:20.789Z,44.03
2023-01-09T17:46:47.151Z,43.23
2023-01-09T17:52:09.347Z,42.17
2023-01-09T17:57:33.294Z,41.13
2023-01-09T18:02:55.857Z,40.23
2023-01-09T18:08:20.787Z,40.27
2023-01-09T18:13:44.785Z,42.80
2023-01-09T18:19:17.777Z,41.80
2023-01-09T18:24:40.257Z,41.73
2023-01-09T18:30:05.213Z,42.77
2023-01-09T18:35:31.243Z,44.07
2023-01-09T18:40:53.727Z,42.57
2023-01-09T18:46:22.467Z,44.60
2023-01-09T18:51:48.222Z,45.87
2023-01-09T18:57:11.711Z,46.60
2023-01-09T19:02:41.422Z,44.60
2023-01-09T19:13:22.158Z,46.98
2023-01-09T19:18:47.387Z,46.15
2023-01-09T19:24:10.081Z,48.63
2023-01-09T19:29:34.685Z,48.33
2023-01-09T19:34:57.121Z,45.75
2023-01-09T19:40:19.910Z,46.63
2023-01-09T19:45:42.220Z,48.00
2023-01-09T19:51:07.051Z,45.78
2023-01-09T19:56:37.666Z,46.75
2023-01-09T20:02:00.399Z,46.77
2023-01-09T20:07:22.655Z,45.35
2023-01-09T20:12:45.681Z,42.20
2023-01-09T20:18:08.163Z,42.60
2023-01-09T20:23:32.511Z,48.13
2023-01-09T20:28:55.302Z,42.00
2023-01-09T20:34:20.869Z,42.10
2023-01-09T20:39:43.888Z,43.25
2023-01-09T20:45:06.090Z,41.90
2023-01-09T20:50:29.168Z,40.70
2023-01-09T20:55:51.496Z,40.33
2023-01-09T21:01:22.256Z,40.70
2023-01-09T21:06:47.616Z,38.08
2023-01-09T21:12:29.801Z,37.80
2023-01-09T21:17:53.605Z,37.08
2023-01-09T21:23:16.168Z,36.17
2023-01-09T21:28:44.068Z,35.38
2023-01-09T21:34:23.968Z,36.03
2023-01-09T21:39:46.598Z,34.57
2023-01-09T21:45:27.032Z,34.53
2023-01-09T21:50:49.436Z,32.57
2023-01-09T21:56:13.701Z,31.20
2023-01-09T22:01:36.092Z,32.27
2023-01-09T22:06:58.585Z,30.80
2023-01-09T22:12:22.279Z,31.70
2023-01-09T22:17:45.120Z,32.43
2023-01-09T22:23:07.304Z,31.50
2023-01-09T22:28:29.878Z,30.97
2023-01-09T22:33:57.746Z,30.02
2023-01-09T22:39:20.922Z,31.82
2023-01-09T22:44:43.178Z,29.50
2023-01-09T22:50:05.930Z,31.00
2023-01-09T22:55:28.661Z,30.45
2023-01-09T23:00:50.998Z,31.52
2023-01-09T23:06:26.260Z,29.72
2023-01-09T23:12:05.745Z,29.07
2023-01-09T23:17:29.800Z,28.67
2023-01-09T23:22:52.078Z,29.27
2023-01-09T23:28:14.376Z,28.60
2023-01-09T23:33:37.019Z,29.17
2023-01-09T23:38:59.873Z,27.57
2023-01-09T23:44:22.316Z,28.93
2023-01-09T23:49:44.697Z,27.98
2023-01-09T23:55:07.085Z,28.80
